Roan Cliffs, Utah
Current Conditions -  °F | °C
As of 12:53 PM on Wednesday 26 Nov 2014 (Local Time) from KPUC Reporting Station
Clear Clear  
Wind Chill: 50°   Ceiling: Unl
Heat Index: 50°   Visibility: 10mi
Dew Point: 25°   Wind: 3mph
Humidity: 38%   Direction: 170°S
Pressure: 30.38"   Gusts: NA
Location:  39.63°N, 110.33°W
Report Text: KPUC 261953Z AUTO 17003KT 10SM CLR 10/M04 A3038 RMK AO2 SLP298 T01001039
Loading
Personal Weather Stations






























Interactive Weather Map New forecast layout! Learn more

10-Day Weather Forecast

Advertisements
Track Severe Weather on mobile